Time;durP1;ratioP1;P1;durP2;ratioP2;P2;SDS_P1;SDS_P2;PMS_P1;PMS_P2;Temp;Humidity;BMP_temperature;BMP_pressure;BME280_temperature;BME280_humidity;BME280_pressure;Samples;Min_cycle;Max_cycle;Signal;HPM_P1;HPM_P2
2023/06/25 00:00:31;;;;;;;14.23;8.13;;;;;;;22.84;52.88;100331.25;4862927;29;20202;-89
2023/06/25 00:02:58;;;;;;;12.48;8.38;;;;;;;22.83;52.87;100324.16;4881559;29;20060;-91
2023/06/25 00:05:25;;;;;;;11.20;8.00;;;;;;;22.78;53.09;100320.41;4868149;29;20040;-90
2023/06/25 00:07:52;;;;;;;9.65;7.05;;;;;;;22.73;53.14;100332.69;4889799;29;20400;-91
2023/06/25 00:10:19;;;;;;;11.32;7.60;;;;;;;22.76;53.16;100328.72;4846818;29;20103;-90
2023/06/25 00:12:45;;;;;;;13.63;7.75;;;;;;;22.72;53.10;100322.91;4892321;29;20076;-90
2023/06/25 00:15:13;;;;;;;13.13;7.40;;;;;;;22.70;53.31;100319.56;4869453;29;20049;-91
2023/06/25 00:17:40;;;;;;;12.85;8.20;;;;;;;22.66;52.94;100314.75;4861243;29;20136;-90
2023/06/25 00:20:09;;;;;;;13.65;8.27;;;;;;;22.71;52.60;100320.38;4865771;29;20044;-90
2023/06/25 00:22:36;;;;;;;8.82;6.97;;;;;;;22.68;52.95;100316.22;4860874;29;20413;-89
2023/06/25 00:25:03;;;;;;;13.27;8.48;;;;;;;22.62;53.07;100317.03;4881589;29;20052;-88
2023/06/25 00:27:29;;;;;;;11.20;7.93;;;;;;;22.61;53.14;100319.94;4871753;29;20040;-90
2023/06/25 00:30:00;;;;;;;11.38;7.75;;;;;;;22.61;52.94;100317.22;4873599;29;20048;-89
2023/06/25 00:32:28;;;;;;;12.23;8.45;;;;;;;22.55;53.00;100318.88;4856705;29;20053;-89
2023/06/25 00:34:57;;;;;;;11.20;8.30;;;;;;;22.56;52.85;100315.13;4878143;29;20057;-90
2023/06/25 00:37:25;;;;;;;11.43;8.13;;;;;;;22.52;52.72;100314.69;4872895;29;20068;-89
2023/06/25 00:39:52;;;;;;;11.77;8.23;;;;;;;22.51;53.21;100315.72;4875018;29;20434;-89
2023/06/25 00:42:18;;;;;;;13.65;7.72;;;;;;;22.53;53.14;100318.22;4863278;29;20500;-89
2023/06/25 00:44:45;;;;;;;11.55;8.48;;;;;;;22.51;53.20;100314.88;4876350;29;20139;-89
2023/06/25 00:47:16;;;;;;;11.65;8.02;;;;;;;22.46;53.19;100320.91;4860186;29;20043;-89
2023/06/25 00:49:44;;;;;;;14.80;8.15;;;;;;;22.45;53.35;100326.53;4897331;29;20049;-90
2023/06/25 00:52:12;;;;;;;13.52;8.00;;;;;;;22.41;53.36;100314.44;4856336;29;20083;-88
2023/06/25 00:54:44;;;;;;;9.25;7.45;;;;;;;22.30;53.72;100310.44;4864572;29;20882;-88
2023/06/25 00:57:11;;;;;;;10.35;7.57;;;;;;;22.36;53.58;100316.91;4861360;29;20412;-89
2023/06/25 00:59:40;;;;;;;10.70;8.05;;;;;;;22.39;53.23;100308.38;4864007;29;20047;-89
2023/06/25 01:02:32;;;;;;;12.45;7.78;;;;;;;22.27;53.82;100302.72;4871362;29;20052;-90
2023/06/25 01:05:11;;;;;;;13.00;8.65;;;;;;;22.14;54.30;100298.06;4888792;29;20101;-90
2023/06/25 01:07:45;;;;;;;13.20;8.40;;;;;;;22.20;53.84;100297.28;4864238;29;20053;-90
2023/06/25 01:10:12;;;;;;;14.15;8.60;;;;;;;22.21;54.07;100300.81;4868316;29;20119;-90
2023/06/25 01:12:40;;;;;;;12.73;7.97;;;;;;;22.16;54.18;100289.72;4844560;29;20063;-89
2023/06/25 01:15:09;;;;;;;14.38;7.80;;;;;;;22.11;54.16;100293.88;4877642;29;20074;-90
2023/06/25 01:17:37;;;;;;;12.38;7.90;;;;;;;22.10;54.42;100286.78;4865956;29;20064;-90
2023/06/25 01:20:05;;;;;;;10.80;7.78;;;;;;;22.13;54.12;100290.13;4889365;29;20462;-89
2023/06/25 01:22:32;;;;;;;11.48;8.20;;;;;;;22.07;54.42;100289.06;4878806;29;20100;-89
2023/06/25 01:25:00;;;;;;;12.05;7.78;;;;;;;22.09;54.15;100285.13;4863640;29;20054;-89
2023/06/25 01:27:27;;;;;;;10.73;7.82;;;;;;;22.07;54.28;100284.47;4874138;29;20041;-89
2023/06/25 01:29:54;;;;;;;12.68;8.30;;;;;;;22.06;54.40;100284.69;4870113;29;20107;-88
2023/06/25 01:32:23;;;;;;;14.13;8.30;;;;;;;22.03;54.41;100285.06;4873073;29;20084;-88
2023/06/25 01:34:51;;;;;;;12.32;7.93;;;;;;;21.99;54.57;100283.81;4857267;29;20108;-89
2023/06/25 01:37:17;;;;;;;14.45;7.72;;;;;;;21.94;54.73;100289.81;4875332;29;20524;-88
2023/06/25 01:39:50;;;;;;;12.00;7.88;;;;;;;21.96;54.42;100278.81;4890341;29;20121;-88
2023/06/25 01:42:17;;;;;;;11.38;7.90;;;;;;;21.92;54.73;100286.47;4860594;29;20052;-89
2023/06/25 01:44:44;;;;;;;13.95;8.43;;;;;;;21.94;54.47;100280.88;4874998;29;20108;-87
2023/06/25 01:47:11;;;;;;;10.85;8.00;;;;;;;21.91;54.45;100282.13;4863014;29;20405;-89
2023/06/25 01:49:37;;;;;;;11.25;8.23;;;;;;;21.92;54.33;100281.06;4857806;29;20119;-89
2023/06/25 01:52:07;;;;;;;11.85;7.97;;;;;;;21.92;54.37;100278.38;4860784;29;20049;-89
2023/06/25 01:54:34;;;;;;;12.70;8.35;;;;;;;21.87;54.23;100270.84;4895455;29;20043;-89
2023/06/25 01:57:02;;;;;;;12.32;8.52;;;;;;;21.84;53.96;100276.66;4878676;29;20500;-88
2023/06/25 01:59:29;;;;;;;11.20;7.82;;;;;;;21.79;54.35;100273.72;4879974;29;20115;-89
2023/06/25 02:01:55;;;;;;;10.55;7.32;;;;;;;21.78;54.50;100269.34;4860550;29;20135;-87
2023/06/25 02:04:23;;;;;;;14.68;8.07;;;;;;;21.77;54.48;100264.97;4890668;29;20057;-89
2023/06/25 02:06:50;;;;;;;10.98;8.15;;;;;;;21.76;54.69;100266.00;4890690;29;20575;-88
2023/06/25 02:09:17;;;;;;;12.73;7.88;;;;;;;21.76;54.81;100265.19;4874633;29;20071;-88
2023/06/25 02:11:45;;;;;;;13.85;8.40;;;;;;;21.68;54.84;100260.75;4879249;29;20048;-89
2023/06/25 02:14:12;;;;;;;11.23;7.38;;;;;;;21.67;55.11;100256.38;4862959;29;20055;-89
2023/06/25 02:16:39;;;;;;;13.07;7.85;;;;;;;21.63;55.03;100260.53;4852711;29;20051;-89
2023/06/25 02:19:06;;;;;;;11.60;7.95;;;;;;;21.60;55.12;100252.78;4844648;29;20115;-88
2023/06/25 02:21:33;;;;;;;12.18;7.60;;;;;;;21.58;55.14;100257.56;4850720;29;20052;-88
2023/06/25 02:23:59;;;;;;;13.40;8.27;;;;;;;21.59;55.24;100253.81;4878793;29;20488;-88
2023/06/25 02:26:26;;;;;;;11.75;7.63;;;;;;;21.60;55.19;100244.69;4888802;29;20055;-89
2023/06/25 02:28:53;;;;;;;13.25;7.38;;;;;;;21.57;55.14;100245.06;4855484;29;20076;-90
2023/06/25 02:31:20;;;;;;;11.13;7.85;;;;;;;21.55;55.43;100244.44;4871220;29;20052;-89
2023/06/25 02:33:47;;;;;;;12.95;8.15;;;;;;;21.53;55.25;100250.06;4872981;29;20421;-90
2023/06/25 02:36:14;;;;;;;14.00;8.05;;;;;;;21.45;55.43;100250.22;4844426;29;20048;-89
2023/06/25 02:38:41;;;;;;;11.73;7.65;;;;;;;21.38;55.84;100249.28;4869206;29;20067;-90
2023/06/25 02:41:07;;;;;;;12.82;8.02;;;;;;;21.34;55.88;100250.69;4842263;29;20552;-90
2023/06/25 02:43:34;;;;;;;11.85;7.72;;;;;;;21.41;55.72;100254.31;4906178;29;20111;-89
2023/06/25 02:46:01;;;;;;;12.70;8.20;;;;;;;21.37;55.90;100253.00;4883886;29;20045;-88
2023/06/25 02:48:28;;;;;;;12.15;8.70;;;;;;;21.30;55.97;100249.44;4876270;29;20069;-89
2023/06/25 02:50:55;;;;;;;16.40;8.75;;;;;;;21.27;56.08;100250.66;4841368;29;20500;-89
2023/06/25 02:53:22;;;;;;;14.65;7.82;;;;;;;21.25;56.16;100248.16;4889930;29;20457;-88
2023/06/25 02:55:49;;;;;;;12.73;8.23;;;;;;;21.25;55.79;100250.00;4879101;29;20116;-88
2023/06/25 02:58:15;;;;;;;12.23;8.25;;;;;;;21.20;56.31;100252.47;4868598;29;20090;-89
2023/06/25 03:00:42;;;;;;;11.60;7.97;;;;;;;21.20;56.18;100257.88;4871592;29;20056;-89
2023/06/25 03:03:10;;;;;;;10.23;7.32;;;;;;;21.19;56.26;100251.63;4847585;29;20055;-89
2023/06/25 03:05:36;;;;;;;11.45;8.05;;;;;;;21.21;56.05;100254.94;4871930;29;20045;-89
2023/06/25 03:08:06;;;;;;;11.32;8.52;;;;;;;21.17;56.56;100256.41;4861676;29;20056;-89
2023/06/25 03:10:36;;;;;;;11.65;7.97;;;;;;;21.17;56.41;100252.88;4861396;29;20756;-89
2023/06/25 03:13:04;;;;;;;13.40;8.57;;;;;;;21.18;56.44;100255.34;4857946;29;20408;-89
2023/06/25 03:15:31;;;;;;;11.48;7.63;;;;;;;21.16;56.27;100246.59;4841105;29;20082;-88
2023/06/25 03:17:58;;;;;;;12.82;7.90;;;;;;;21.15;56.36;100244.94;4880680;29;20044;-90
2023/06/25 03:20:25;;;;;;;13.38;7.82;;;;;;;21.16;56.16;100252.00;4893132;29;20061;-88
2023/06/25 03:22:52;;;;;;;14.43;8.18;;;;;;;21.05;56.19;100239.03;4895989;29;20052;-89
2023/06/25 03:25:19;;;;;;;12.48;8.07;;;;;;;21.06;56.42;100242.56;4881910;29;20060;-89
2023/06/25 03:27:53;;;;;;;12.45;7.32;;;;;;;21.02;56.69;100248.38;4855608;29;20065;-89
2023/06/25 03:30:20;;;;;;;11.68;7.50;;;;;;;21.02;56.65;100247.53;4870908;29;20040;-90
2023/06/25 03:32:47;;;;;;;10.27;7.60;;;;;;;21.01;56.61;100249.41;4869442;29;20396;-90
2023/06/25 03:35:14;;;;;;;12.52;8.00;;;;;;;21.03;56.71;100251.91;4862980;29;20044;-89
2023/06/25 03:37:43;;;;;;;11.27;7.43;;;;;;;20.95;56.64;100257.44;4877479;29;20135;-89
2023/06/25 03:40:11;;;;;;;12.00;8.60;;;;;;;20.95;56.74;100252.03;4849840;29;20064;-89
2023/06/25 03:42:38;;;;;;;12.93;8.25;;;;;;;21.00;56.53;100255.81;4875931;29;20417;-89
2023/06/25 03:45:06;;;;;;;11.43;7.78;;;;;;;21.04;56.72;100253.59;4880240;29;20064;-90
2023/06/25 03:47:33;;;;;;;13.10;8.18;;;;;;;21.12;56.27;100253.44;4893274;29;20504;-89
2023/06/25 03:50:00;;;;;;;10.30;7.43;;;;;;;21.21;56.25;100249.56;4847543;29;20524;-89
2023/06/25 03:52:31;;;;;;;9.75;7.68;;;;;;;21.32;56.19;100244.66;4859364;29;20064;-88
2023/06/25 03:54:58;;;;;;;12.10;7.85;;;;;;;21.45;56.38;100242.94;4841828;29;20056;-89
2023/06/25 03:57:25;;;;;;;12.43;8.70;;;;;;;21.64;56.43;100237.84;4843611;29;20049;-88
2023/06/25 03:59:51;;;;;;;10.95;8.25;;;;;;;21.93;56.52;100247.59;4880563;29;20052;-89
2023/06/25 04:02:19;;;;;;;16.35;9.10;;;;;;;22.47;54.96;100243.28;4891792;29;20051;-90
2023/06/25 04:04:46;;;;;;;13.38;8.57;;;;;;;23.12;52.86;100244.44;4866261;29;20086;-89
2023/06/25 04:07:13;;;;;;;13.57;8.73;;;;;;;23.59;50.83;100244.44;4863714;29;20131;-88
2023/06/25 04:09:40;;;;;;;12.18;8.23;;;;;;;23.49;50.18;100233.19;4862069;29;20095;-89
2023/06/25 04:12:08;;;;;;;11.80;8.00;;;;;;;23.32;50.07;100239.03;4878305;29;20057;-89
2023/06/25 04:14:36;;;;;;;12.68;8.25;;;;;;;23.23;50.35;100239.44;4890348;29;20108;-89
2023/06/25 04:17:04;;;;;;;14.45;7.82;;;;;;;23.06;50.38;100242.56;4843479;29;20055;-89
2023/06/25 04:19:31;;;;;;;15.57;8.75;;;;;;;22.92;50.75;100233.59;4875090;29;20048;-89
2023/06/25 04:21:58;;;;;;;13.75;8.00;;;;;;;22.89;50.82;100233.16;4891837;29;20051;-90
2023/06/25 04:24:25;;;;;;;12.13;7.43;;;;;;;22.82;51.07;100227.75;4859983;29;20048;-89
2023/06/25 04:26:52;;;;;;;12.27;7.72;;;;;;;22.82;50.76;100224.19;4861637;29;20048;-89
2023/06/25 04:29:19;;;;;;;12.45;7.32;;;;;;;22.87;50.92;100227.97;4851687;29;20040;-89
2023/06/25 04:31:46;;;;;;;11.13;7.43;;;;;;;22.85;50.79;100223.78;4847145;29;20048;-90
2023/06/25 04:34:13;;;;;;;16.25;8.30;;;;;;;22.89;51.04;100227.72;4873263;29;20084;-90
2023/06/25 04:36:43;;;;;;;12.48;7.50;;;;;;;22.92;50.96;100225.47;4891494;29;20048;-90
2023/06/25 04:39:10;;;;;;;12.60;8.20;;;;;;;22.89;50.70;100233.16;4863175;29;20082;-89
2023/06/25 04:41:37;;;;;;;11.23;7.53;;;;;;;22.91;50.89;100228.38;4865743;29;20076;-89
2023/06/25 04:44:04;;;;;;;9.43;7.50;;;;;;;22.85;50.90;100227.31;4877678;29;20045;-90
2023/06/25 04:46:31;;;;;;;12.68;8.38;;;;;;;22.82;50.90;100219.63;4860556;29;20051;-90
2023/06/25 04:48:58;;;;;;;13.60;7.60;;;;;;;22.79;50.73;100214.59;4868417;29;20103;-90
2023/06/25 04:51:25;;;;;;;16.55;8.27;;;;;;;22.80;50.87;100220.88;4866661;29;20522;-89
2023/06/25 04:53:52;;;;;;;13.02;7.68;;;;;;;22.74;50.99;100230.63;4842319;29;20056;-89
2023/06/25 04:56:19;;;;;;;13.48;7.88;;;;;;;22.62;51.00;100230.41;4863276;29;20053;-90
2023/06/25 04:58:46;;;;;;;11.75;8.05;;;;;;;22.61;51.17;100230.59;4891158;29;20421;-90
2023/06/25 05:01:12;;;;;;;12.52;8.30;;;;;;;22.64;51.28;100227.47;4871089;29;20412;-88
2023/06/25 05:03:40;;;;;;;12.15;7.22;;;;;;;22.58;51.31;100231.84;4877276;29;20139;-89
2023/06/25 05:06:06;;;;;;;12.27;7.97;;;;;;;22.48;51.17;100228.69;4861697;29;20524;-88
2023/06/25 05:08:33;;;;;;;11.95;8.10;;;;;;;22.43;51.89;100232.00;4876417;29;20063;-90
2023/06/25 05:11:00;;;;;;;12.30;8.10;;;;;;;22.43;51.85;100228.47;4860536;29;20131;-89
2023/06/25 05:13:30;;;;;;;10.98;7.65;;;;;;;22.33;52.17;100231.56;4886759;29;20048;-89
2023/06/25 05:15:57;;;;;;;9.90;8.13;;;;;;;22.31;52.47;100228.22;4869863;29;20095;-89
2023/06/25 05:18:24;;;;;;;10.90;7.60;;;;;;;22.34;52.38;100225.13;4861612;29;20474;-89
2023/06/25 05:20:51;;;;;;;9.90;7.60;;;;;;;22.36;52.65;100228.44;4893804;29;20112;-89
2023/06/25 05:23:18;;;;;;;14.18;7.78;;;;;;;22.33;52.88;100223.44;4897245;29;20057;-89
2023/06/25 05:25:44;;;;;;;15.23;7.55;;;;;;;22.28;52.79;100226.75;4864754;29;20036;-88
2023/06/25 05:28:11;;;;;;;15.82;8.27;;;;;;;22.25;52.86;100229.88;4860726;29;20135;-88
2023/06/25 05:30:38;;;;;;;12.73;8.00;;;;;;;22.36;52.77;100225.75;4860394;29;20044;-88
2023/06/25 05:33:05;;;;;;;12.15;7.35;;;;;;;22.36;52.90;100224.91;4846349;29;20049;-88
2023/06/25 05:35:32;;;;;;;12.85;8.95;;;;;;;22.37;53.20;100232.00;4886081;29;20054;-89
2023/06/25 05:37:59;;;;;;;11.68;7.88;;;;;;;22.41;53.17;100234.06;4872080;29;20118;-88
2023/06/25 05:40:26;;;;;;;11.63;7.63;;;;;;;22.32;53.64;100225.31;4860263;29;20051;-89
2023/06/25 05:42:54;;;;;;;13.38;8.00;;;;;;;22.43;52.94;100223.91;4886613;29;20055;-88
2023/06/25 05:45:22;;;;;;;11.88;7.90;;;;;;;22.48;53.06;100228.69;4890488;29;20126;-88
2023/06/25 05:47:48;;;;;;;14.00;8.43;;;;;;;22.54;53.12;100233.28;4893932;29;20045;-88
2023/06/25 05:50:15;;;;;;;13.85;8.52;;;;;;;22.58;53.54;100231.84;4855637;29;20045;-89
2023/06/25 05:52:43;;;;;;;16.50;8.32;;;;;;;22.60;53.48;100234.38;4860464;29;20056;-89
2023/06/25 05:55:11;;;;;;;12.50;7.40;;;;;;;22.66;52.98;100231.66;4894175;29;20568;-88
2023/06/25 05:57:39;;;;;;;12.20;7.65;;;;;;;22.64;53.61;100228.31;4856011;29;20057;-88
2023/06/25 06:00:08;;;;;;;13.05;8.10;;;;;;;22.72;53.81;100221.91;4864771;29;20075;-88
2023/06/25 06:02:43;;;;;;;13.30;8.10;;;;;;;22.73;53.45;100228.97;4863891;29;20060;-88
2023/06/25 06:05:10;;;;;;;13.40;8.18;;;;;;;22.74;53.56;100227.91;4866783;29;20060;-89
2023/06/25 06:07:37;;;;;;;12.77;7.45;;;;;;;22.79;53.39;100224.59;4869130;29;20040;-89
2023/06/25 06:10:04;;;;;;;10.68;7.88;;;;;;;22.82;53.51;100226.88;4857342;29;20174;-88
2023/06/25 06:12:30;;;;;;;11.30;7.30;;;;;;;22.85;52.01;100221.91;4868927;29;20064;-90
2023/06/25 06:14:57;;;;;;;12.35;7.80;;;;;;;22.87;52.20;100219.84;4879710;29;20127;-89
2023/06/25 06:17:24;;;;;;;13.02;7.60;;;;;;;22.97;51.54;100224.84;4874793;29;20041;-89
2023/06/25 06:19:51;;;;;;;14.52;8.38;;;;;;;22.93;50.51;100212.75;4863299;29;20076;-89
2023/06/25 06:22:17;;;;;;;11.32;7.30;;;;;;;22.96;50.62;100221.28;4874787;29;20051;-89
2023/06/25 06:24:44;;;;;;;14.10;8.38;;;;;;;23.01;50.95;100218.00;4876323;29;20059;-89
2023/06/25 06:27:11;;;;;;;12.27;7.43;;;;;;;23.04;50.32;100227.56;4873883;29;20480;-88
2023/06/25 06:29:38;;;;;;;11.40;7.13;;;;;;;23.08;50.15;100235.09;4866903;29;20104;-89
2023/06/25 06:32:05;;;;;;;12.02;6.85;;;;;;;23.10;50.04;100226.72;4897482;29;20050;-88
2023/06/25 06:34:32;;;;;;;12.50;7.28;;;;;;;23.12;50.02;100228.19;4887437;29;20047;-88
2023/06/25 06:36:59;;;;;;;9.85;7.45;;;;;;;23.13;49.35;100229.88;4862096;29;20040;-89
2023/06/25 06:39:26;;;;;;;12.75;7.80;;;;;;;23.17;49.59;100230.28;4854463;29;20100;-88
2023/06/25 06:41:52;;;;;;;10.02;7.13;;;;;;;23.09;49.70;100225.06;4880880;29;20721;-88
2023/06/25 06:44:23;;;;;;;12.63;8.07;;;;;;;23.13;49.15;100223.63;4847417;29;20059;-89
2023/06/25 06:46:50;;;;;;;14.18;7.45;;;;;;;23.17;49.54;100222.16;4864112;29;20109;-88
2023/06/25 06:49:17;;;;;;;13.32;7.25;;;;;;;23.16;49.93;100221.31;4853647;29;20057;-89
2023/06/25 06:51:44;;;;;;;12.82;7.68;;;;;;;23.23;49.51;100223.19;4880155;29;20045;-88
2023/06/25 06:54:11;;;;;;;10.75;7.78;;;;;;;23.28;49.39;100226.09;4861200;29;20052;-90
2023/06/25 06:56:38;;;;;;;12.95;7.47;;;;;;;23.28;49.58;100223.38;4884734;29;20100;-88
2023/06/25 06:59:05;;;;;;;11.73;7.45;;;;;;;23.31;49.40;100223.81;4900695;29;20053;-88
2023/06/25 07:01:33;;;;;;;9.85;7.10;;;;;;;23.34;49.13;100220.69;4864152;29;20066;-88
2023/06/25 07:04:00;;;;;;;12.38;7.28;;;;;;;23.34;48.74;100220.69;4859158;29;20060;-88
2023/06/25 07:06:26;;;;;;;9.30;7.15;;;;;;;23.40;49.04;100216.28;4891941;29;20052;-89
2023/06/25 07:08:53;;;;;;;11.07;6.82;;;;;;;23.44;48.99;100219.44;4874607;29;20040;-89
2023/06/25 07:11:20;;;;;;;12.18;7.45;;;;;;;23.48;48.49;100221.50;4876597;29;20069;-88
2023/06/25 07:13:47;;;;;;;13.57;7.70;;;;;;;23.48;49.13;100215.25;4879673;29;20120;-90
2023/06/25 07:16:14;;;;;;;12.85;7.07;;;;;;;23.53;48.64;100221.69;4860178;29;20056;-88
2023/06/25 07:18:43;;;;;;;10.45;6.78;;;;;;;23.56;48.57;100224.00;4867347;29;20448;-88
2023/06/25 07:21:10;;;;;;;10.38;7.07;;;;;;;23.58;48.17;100223.78;4869156;29;20072;-88
2023/06/25 07:23:37;;;;;;;11.75;6.88;;;;;;;23.58;47.86;100219.22;4871762;29;20067;-88
2023/06/25 07:26:04;;;;;;;13.95;7.60;;;;;;;23.64;47.94;100222.13;4898625;29;20128;-89
2023/06/25 07:28:30;;;;;;;13.35;7.43;;;;;;;23.65;47.53;100221.88;4881528;29;20088;-89
2023/06/25 07:30:57;;;;;;;11.32;7.53;;;;;;;23.67;47.57;100216.28;4885390;29;20045;-88
2023/06/25 07:33:24;;;;;;;15.07;7.20;;;;;;;23.66;47.25;100212.72;4897734;29;20496;-88
2023/06/25 07:35:51;;;;;;;11.93;7.43;;;;;;;23.69;47.49;100214.19;4894167;29;20044;-89
2023/06/25 07:38:17;;;;;;;9.93;7.07;;;;;;;23.72;46.80;100216.47;4859469;29;20051;-89
2023/06/25 07:40:44;;;;;;;12.65;7.28;;;;;;;23.71;47.05;100210.22;4868289;29;20139;-89
2023/06/25 07:43:11;;;;;;;12.50;7.18;;;;;;;23.76;47.02;100206.88;4861233;29;20047;-88
2023/06/25 07:45:38;;;;;;;10.38;7.15;;;;;;;23.80;46.58;100203.53;4858118;29;20044;-90
2023/06/25 07:48:06;;;;;;;10.25;6.70;;;;;;;23.86;46.71;100203.72;4844436;29;20254;-89
2023/06/25 07:50:33;;;;;;;13.15;7.35;;;;;;;23.87;46.26;100202.69;4861022;29;20055;-88
2023/06/25 07:53:00;;;;;;;12.98;7.05;;;;;;;23.90;46.49;100194.94;4889915;29;20049;-89
2023/06/25 07:55:27;;;;;;;11.30;7.10;;;;;;;23.92;45.97;100201.00;4853717;29;20048;-89
2023/06/25 07:57:54;;;;;;;13.38;7.03;;;;;;;24.00;46.11;100202.63;4865502;29;20068;-88
2023/06/25 08:00:20;;;;;;;12.77;7.53;;;;;;;23.99;46.16;100198.22;4892569;29;20147;-89
2023/06/25 08:02:49;;;;;;;10.98;7.45;;;;;;;24.01;45.74;100194.25;4875916;29;20041;-89
2023/06/25 08:05:16;;;;;;;10.00;7.50;;;;;;;24.05;45.61;100192.78;4870132;29;20409;-88
2023/06/25 08:07:42;;;;;;;11.57;6.55;;;;;;;24.07;44.96;100194.44;4863811;29;20052;-88
2023/06/25 08:10:09;;;;;;;12.77;6.97;;;;;;;24.13;45.42;100188.19;4880866;29;20052;-89
2023/06/25 08:12:36;;;;;;;9.32;6.25;;;;;;;24.18;45.20;100186.47;4875128;29;20051;-89
2023/06/25 08:15:04;;;;;;;12.30;7.20;;;;;;;24.21;45.47;100190.63;4885632;29;20892;-88
2023/06/25 08:17:31;;;;;;;10.75;6.53;;;;;;;24.26;45.81;100190.81;4858416;29;20045;-88
2023/06/25 08:19:57;;;;;;;9.82;6.65;;;;;;;24.29;45.61;100186.84;4896979;29;20127;-88
2023/06/25 08:22:24;;;;;;;15.98;8.20;;;;;;;24.35;45.33;100183.25;4868724;29;20044;-83
2023/06/25 08:24:51;;;;;;;11.25;7.35;;;;;;;24.32;44.74;100176.38;4875635;29;20527;-83
2023/06/25 08:27:18;;;;;;;11.48;7.22;;;;;;;24.35;44.74;100183.25;4878314;29;20470;-82
2023/06/25 08:29:45;;;;;;;12.68;7.07;;;;;;;24.37;43.46;100178.44;4908525;29;20523;-83
2023/06/25 08:32:12;;;;;;;9.60;6.90;;;;;;;24.38;43.23;100180.13;4863838;29;20135;-84
2023/06/25 08:34:40;;;;;;;8.15;6.10;;;;;;;24.38;43.93;100178.22;4890396;29;20052;-83
2023/06/25 08:37:06;;;;;;;12.70;6.93;;;;;;;24.41;43.89;100172.34;4893117;29;20124;-82
2023/06/25 08:39:33;;;;;;;9.15;6.40;;;;;;;24.45;44.43;100179.06;4895542;29;20500;-82
2023/06/25 08:42:00;;;;;;;9.75;6.65;;;;;;;24.51;44.19;100173.81;4856302;29;20052;-82
2023/06/25 08:44:27;;;;;;;10.40;7.10;;;;;;;24.55;43.89;100173.16;4889467;29;20409;-84
2023/06/25 08:46:54;;;;;;;12.05;6.97;;;;;;;24.60;43.49;100175.19;4896502;29;20044;-83
2023/06/25 08:49:28;;;;;;;11.65;6.65;;;;;;;24.59;43.08;100177.06;4871534;29;20516;-83
2023/06/25 08:51:56;;;;;;;12.77;7.35;;;;;;;24.64;42.74;100169.09;4865876;29;20127;-83
2023/06/25 08:54:23;;;;;;;9.13;6.07;;;;;;;24.64;43.08;100165.56;4858531;29;20132;-83
2023/06/25 08:56:50;;;;;;;9.10;6.50;;;;;;;24.66;42.52;100166.19;4861084;29;20128;-85
2023/06/25 08:59:17;;;;;;;9.18;6.45;;;;;;;24.66;42.75;100167.00;4890775;29;20044;-83
2023/06/25 09:01:44;;;;;;;9.57;6.40;;;;;;;24.70;42.66;100167.38;4886230;29;20056;-83
2023/06/25 09:04:11;;;;;;;9.93;6.25;;;;;;;24.76;41.49;100166.53;4887880;29;20072;-84
2023/06/25 09:06:39;;;;;;;9.75;6.57;;;;;;;24.75;41.82;100159.41;4890487;29;20738;-85
2023/06/25 09:09:24;;;;;;;8.60;6.00;;;;;;;24.78;41.38;100164.41;4858192;29;20808;-84
2023/06/25 09:11:53;;;;;;;9.70;6.63;;;;;;;24.82;41.34;100156.66;4878291;29;20036;-83
2023/06/25 09:14:20;;;;;;;9.70;6.45;;;;;;;24.79;41.66;100157.94;4897242;29;20032;-82
2023/06/25 09:16:48;;;;;;;9.30;5.55;;;;;;;24.87;41.08;100163.06;4874214;29;20123;-83
2023/06/25 09:19:21;;;;;;;8.68;5.57;;;;;;;24.84;41.31;100162.69;4899028;29;20044;-83
2023/06/25 09:21:48;;;;;;;10.95;6.22;;;;;;;24.90;41.36;100150.94;4881941;29;20104;-82
2023/06/25 09:24:17;;;;;;;9.75;5.85;;;;;;;24.93;40.67;100150.47;4869355;29;21008;-82
2023/06/25 09:26:53;;;;;;;10.20;5.90;;;;;;;24.87;40.04;100146.78;4895448;29;20047;-81
2023/06/25 09:29:21;;;;;;;10.60;6.35;;;;;;;24.94;40.89;100149.44;4883693;29;20120;-82
2023/06/25 09:31:49;;;;;;;11.27;5.72;;;;;;;24.98;41.17;100153.38;4874533;29;21766;-82
2023/06/25 09:34:17;;;;;;;9.48;6.40;;;;;;;24.99;40.78;100136.03;4874308;29;20400;-82
2023/06/25 09:36:44;;;;;;;10.52;6.05;;;;;;;24.99;40.75;100144.19;4873391;29;20056;-82
2023/06/25 09:39:12;;;;;;;8.32;5.88;;;;;;;25.02;40.95;100143.72;4887501;29;20530;-81
2023/06/25 09:41:43;;;;;;;9.35;5.95;;;;;;;25.04;40.44;100132.66;4874881;29;20143;-82
2023/06/25 09:44:10;;;;;;;8.38;5.88;;;;;;;25.05;40.74;100137.84;4870395;29;20591;-82
2023/06/25 09:46:39;;;;;;;8.52;5.78;;;;;;;25.06;40.13;100139.53;4874390;29;20761;-82
2023/06/25 09:49:09;;;;;;;10.40;6.72;;;;;;;25.09;40.69;100127.38;4880271;29;21498;-82
2023/06/25 09:51:55;;;;;;;9.60;6.75;;;;;;;25.07;40.89;100124.03;4879201;29;20048;-83
2023/06/25 09:54:23;;;;;;;10.82;6.28;;;;;;;25.16;40.86;100120.00;4884409;29;20044;-82
2023/06/25 09:56:51;;;;;;;8.65;6.10;;;;;;;25.18;40.59;100117.06;4868727;29;20136;-81
2023/06/25 09:59:18;;;;;;;8.63;5.90;;;;;;;25.15;40.67;100112.88;4869274;29;20108;-82
2023/06/25 10:01:45;;;;;;;10.00;6.00;;;;;;;25.16;40.72;100110.97;4873145;29;20416;-82
2023/06/25 10:04:12;;;;;;;8.52;5.93;;;;;;;25.16;40.85;100111.84;4875017;29;20044;-81
2023/06/25 10:06:39;;;;;;;8.15;5.95;;;;;;;25.19;40.74;100108.69;4859616;29;20052;-82
2023/06/25 10:09:06;;;;;;;8.88;6.22;;;;;;;25.20;40.69;100107.63;4861921;29;20410;-82
2023/06/25 10:11:34;;;;;;;10.65;6.40;;;;;;;25.23;40.92;100109.06;4880488;29;20049;-82
2023/06/25 10:14:04;;;;;;;9.48;5.78;;;;;;;25.26;40.25;100109.44;4887859;29;20064;-81
2023/06/25 10:16:32;;;;;;;9.55;5.80;;;;;;;25.26;40.07;100095.84;4851515;29;20068;-82
2023/06/25 10:19:05;;;;;;;10.13;5.82;;;;;;;25.29;40.29;100095.41;4901192;29;20040;-81
2023/06/25 10:21:32;;;;;;;10.70;6.13;;;;;;;25.29;40.30;100091.84;4888862;29;20056;-82
2023/06/25 10:24:03;;;;;;;7.85;5.75;;;;;;;25.27;40.32;100089.38;4902111;29;20080;-83
2023/06/25 10:26:35;;;;;;;9.70;6.38;;;;;;;25.28;40.14;100082.88;4886014;29;20052;-83
2023/06/25 10:29:06;;;;;;;11.13;6.33;;;;;;;25.32;40.60;100086.81;4884166;29;20048;-82
2023/06/25 10:31:38;;;;;;;8.35;5.93;;;;;;;25.33;40.62;100074.03;4857166;29;20873;-81
2023/06/25 10:34:06;;;;;;;9.77;5.72;;;;;;;25.39;40.72;100083.16;4863439;29;20729;-83
2023/06/25 10:36:33;;;;;;;8.32;6.32;;;;;;;25.39;39.75;100075.88;4883848;29;20481;-82
2023/06/25 10:38:59;;;;;;;10.40;6.47;;;;;;;25.40;40.12;100077.50;4892810;29;20659;-82
2023/06/25 10:41:30;;;;;;;9.93;6.72;;;;;;;25.43;39.80;100062.63;4876571;29;20756;-83
2023/06/25 10:44:00;;;;;;;8.90;6.30;;;;;;;25.46;39.65;100067.63;4872302;29;20515;-83
2023/06/25 10:46:28;;;;;;;9.23;6.47;;;;;;;25.46;39.27;100073.88;4878924;29;20044;-81
2023/06/25 10:49:01;;;;;;;10.00;6.60;;;;;;;25.47;39.25;100072.84;4881019;29;20126;-81
2023/06/25 10:51:28;;;;;;;10.05;6.80;;;;;;;25.43;38.88;100060.75;4887634;29;20049;-80
2023/06/25 10:53:56;;;;;;;11.43;5.80;;;;;;;25.45;39.42;100069.50;4876659;29;20044;-81
2023/06/25 10:56:23;;;;;;;9.13;6.32;;;;;;;25.49;39.21;100073.44;4867629;29;20045;-81
2023/06/25 10:58:56;;;;;;;10.23;7.18;;;;;;;25.51;39.50;100054.16;4890913;29;20041;-81
2023/06/25 11:01:23;;;;;;;9.32;6.05;;;;;;;25.58;39.67;100059.53;4894494;29;20071;-81
2023/06/25 11:03:51;;;;;;;8.05;5.45;;;;;;;25.57;39.09;100061.44;4878482;29;20056;-81
2023/06/25 11:06:18;;;;;;;7.72;5.80;;;;;;;25.60;39.18;100050.09;4861664;29;20470;-81
2023/06/25 11:08:47;;;;;;;8.25;5.88;;;;;;;25.60;39.55;100047.38;4878232;29;20045;-81
2023/06/25 11:11:15;;;;;;;8.05;5.90;;;;;;;25.66;38.86;100051.88;4867326;29;20493;-82
2023/06/25 11:13:42;;;;;;;8.35;6.15;;;;;;;25.68;38.09;100046.22;4864395;29;20056;-82
2023/06/25 11:16:10;;;;;;;10.50;6.00;;;;;;;25.70;38.42;100025.88;4890032;29;20037;-81
2023/06/25 11:18:40;;;;;;;6.88;5.78;;;;;;;25.72;39.15;100031.06;4890354;29;20750;-82
2023/06/25 11:21:09;;;;;;;8.68;6.35;;;;;;;25.74;39.50;100029.78;4889111;29;20109;-82